sensor_id;sensor_type;location;lat;lon;timestamp;temperature;humidity
2997;DHT22;1508;48.744;9.110;2022-09-03T00:02:52;16.90;99.90
2997;DHT22;1508;48.744;9.110;2022-09-03T00:05:54;17.00;99.90
2997;DHT22;1508;48.744;9.110;2022-09-03T00:09:08;17.00;99.90
2997;DHT22;1508;48.744;9.110;2022-09-03T00:12:15;17.00;99.90
2997;DHT22;1508;48.744;9.110;2022-09-03T00:15:12;17.00;99.90
2997;DHT22;1508;48.744;9.110;2022-09-03T00:18:10;17.00;99.90
2997;DHT22;1508;48.744;9.110;2022-09-03T00:21:02;17.10;99.90
2997;DHT22;1508;48.744;9.110;2022-09-03T00:23:49;17.10;99.90
2997;DHT22;1508;48.744;9.110;2022-09-03T00:26:38;17.10;99.90
2997;DHT22;1508;48.744;9.110;2022-09-03T00:29:34;17.20;99.90
2997;DHT22;1508;48.744;9.110;2022-09-03T00:32:28;17.20;99.90
2997;DHT22;1508;48.744;9.110;2022-09-03T00:35:24;17.30;99.90
2997;DHT22;1508;48.744;9.110;2022-09-03T00:38:11;17.30;99.90
2997;DHT22;1508;48.744;9.110;2022-09-03T01:04:56;17.30;99.90
2997;DHT22;1508;48.744;9.110;2022-09-03T01:08:07;17.30;99.90
2997;DHT22;1508;48.744;9.110;2022-09-03T01:20:23;17.30;99.90
2997;DHT22;1508;48.744;9.110;2022-09-03T01:24:25;17.40;99.90
2997;DHT22;1508;48.744;9.110;2022-09-03T01:30:10;17.40;99.90
2997;DHT22;1508;48.744;9.110;2022-09-03T01:33:42;17.40;99.90
2997;DHT22;1508;48.744;9.110;2022-09-03T01:48:43;17.40;99.90
2997;DHT22;1508;48.744;9.110;2022-09-03T01:51:30;17.40;99.90
2997;DHT22;1508;48.744;9.110;2022-09-03T01:58:01;17.50;99.90
2997;DHT22;1508;48.744;9.110;2022-09-03T02:00:56;17.50;99.90
2997;DHT22;1508;48.744;9.110;2022-09-03T02:03:43;17.50;99.90
2997;DHT22;1508;48.744;9.110;2022-09-03T02:06:30;17.50;99.90
2997;DHT22;1508;48.744;9.110;2022-09-03T02:09:16;17.50;99.90
2997;DHT22;1508;48.744;9.110;2022-09-03T02:12:07;17.50;99.90
2997;DHT22;1508;48.744;9.110;2022-09-03T02:14:55;17.50;99.90
2997;DHT22;1508;48.744;9.110;2022-09-03T02:17:42;17.40;99.90
2997;DHT22;1508;48.744;9.110;2022-09-03T02:20:29;17.40;99.90
2997;DHT22;1508;48.744;9.110;2022-09-03T02:23:15;17.40;99.90
2997;DHT22;1508;48.744;9.110;2022-09-03T02:26:02;17.40;99.90
2997;DHT22;1508;48.744;9.110;2022-09-03T02:28:50;17.40;99.90
2997;DHT22;1508;48.744;9.110;2022-09-03T02:31:36;17.40;99.90
2997;DHT22;1508;48.744;9.110;2022-09-03T02:34:22;17.40;99.90
2997;DHT22;1508;48.744;9.110;2022-09-03T02:37:15;17.30;99.90
2997;DHT22;1508;48.744;9.110;2022-09-03T02:40:02;17.30;99.90
2997;DHT22;1508;48.744;9.110;2022-09-03T02:42:48;17.20;99.90
2997;DHT22;1508;48.744;9.110;2022-09-03T02:45:37;17.20;99.90
2997;DHT22;1508;48.744;9.110;2022-09-03T02:48:27;17.10;99.90
2997;DHT22;1508;48.744;9.110;2022-09-03T02:51:13;17.10;99.90
2997;DHT22;1508;48.744;9.110;2022-09-03T02:53:58;17.00;99.90
2997;DHT22;1508;48.744;9.110;2022-09-03T02:56:44;17.00;99.90
2997;DHT22;1508;48.744;9.110;2022-09-03T02:59:30;17.00;99.90
2997;DHT22;1508;48.744;9.110;2022-09-03T03:02:16;16.90;99.90
2997;DHT22;1508;48.744;9.110;2022-09-03T03:05:03;16.80;99.90
2997;DHT22;1508;48.744;9.110;2022-09-03T03:07:49;16.80;99.90
2997;DHT22;1508;48.744;9.110;2022-09-03T03:10:35;16.80;99.90
2997;DHT22;1508;48.744;9.110;2022-09-03T03:13:21;16.80;99.90
2997;DHT22;1508;48.744;9.110;2022-09-03T03:16:07;16.70;99.90
2997;DHT22;1508;48.744;9.110;2022-09-03T03:18:55;16.70;99.90
2997;DHT22;1508;48.744;9.110;2022-09-03T03:21:41;16.60;99.90
2997;DHT22;1508;48.744;9.110;2022-09-03T03:24:27;16.50;99.90
2997;DHT22;1508;48.744;9.110;2022-09-03T03:27:13;16.40;99.90
2997;DHT22;1508;48.744;9.110;2022-09-03T03:29:59;16.30;99.90
2997;DHT22;1508;48.744;9.110;2022-09-03T03:32:44;16.30;99.90
2997;DHT22;1508;48.744;9.110;2022-09-03T03:35:31;16.20;99.90
2997;DHT22;1508;48.744;9.110;2022-09-03T03:38:16;16.20;99.90
2997;DHT22;1508;48.744;9.110;2022-09-03T03:41:13;16.20;99.90
2997;DHT22;1508;48.744;9.110;2022-09-03T03:44:02;16.20;99.90
2997;DHT22;1508;48.744;9.110;2022-09-03T03:46:48;16.20;99.90
2997;DHT22;1508;48.744;9.110;2022-09-03T03:49:34;16.20;99.90
2997;DHT22;1508;48.744;9.110;2022-09-03T03:52:20;16.20;99.90
2997;DHT22;1508;48.744;9.110;2022-09-03T03:55:06;16.30;99.90
2997;DHT22;1508;48.744;9.110;2022-09-03T03:57:52;16.30;99.90
2997;DHT22;1508;48.744;9.110;2022-09-03T04:00:38;16.30;99.90
2997;DHT22;1508;48.744;9.110;2022-09-03T04:03:24;16.40;99.90
2997;DHT22;1508;48.744;9.110;2022-09-03T04:06:12;16.40;99.90
2997;DHT22;1508;48.744;9.110;2022-09-03T04:08:58;16.40;99.90
2997;DHT22;1508;48.744;9.110;2022-09-03T04:11:44;16.40;99.90
2997;DHT22;1508;48.744;9.110;2022-09-03T04:14:29;16.50;99.90
2997;DHT22;1508;48.744;9.110;2022-09-03T04:17:15;16.50;99.90
2997;DHT22;1508;48.744;9.110;2022-09-03T04:20:01;16.50;99.90
2997;DHT22;1508;48.744;9.110;2022-09-03T04:22:47;16.50;99.90
2997;DHT22;1508;48.744;9.110;2022-09-03T04:25:33;16.50;99.90
2997;DHT22;1508;48.744;9.110;2022-09-03T04:28:19;16.50;99.90
2997;DHT22;1508;48.744;9.110;2022-09-03T04:31:08;16.50;99.90
2997;DHT22;1508;48.744;9.110;2022-09-03T04:33:54;16.50;99.90
2997;DHT22;1508;48.744;9.110;2022-09-03T04:36:40;16.50;99.90
2997;DHT22;1508;48.744;9.110;2022-09-03T04:39:26;16.50;99.90
2997;DHT22;1508;48.744;9.110;2022-09-03T04:42:11;16.50;99.90
2997;DHT22;1508;48.744;9.110;2022-09-03T04:44:57;16.50;99.90
2997;DHT22;1508;48.744;9.110;2022-09-03T04:47:54;16.60;99.90
2997;DHT22;1508;48.744;9.110;2022-09-03T04:50:39;16.60;99.90
2997;DHT22;1508;48.744;9.110;2022-09-03T04:53:25;16.60;99.90
2997;DHT22;1508;48.744;9.110;2022-09-03T04:56:16;16.60;99.90
2997;DHT22;1508;48.744;9.110;2022-09-03T04:59:07;16.60;99.90
2997;DHT22;1508;48.744;9.110;2022-09-03T05:01:53;16.60;99.90
2997;DHT22;1508;48.744;9.110;2022-09-03T05:04:39;16.60;99.90
2997;DHT22;1508;48.744;9.110;2022-09-03T05:07:24;16.60;99.90
2997;DHT22;1508;48.744;9.110;2022-09-03T05:10:12;16.70;99.90
2997;DHT22;1508;48.744;9.110;2022-09-03T05:13:03;16.70;99.90
2997;DHT22;1508;48.744;9.110;2022-09-03T05:15:49;16.70;99.90
2997;DHT22;1508;48.744;9.110;2022-09-03T05:18:36;16.60;99.90
2997;DHT22;1508;48.744;9.110;2022-09-03T05:21:22;16.60;99.90
2997;DHT22;1508;48.744;9.110;2022-09-03T05:24:08;16.60;99.90
2997;DHT22;1508;48.744;9.110;2022-09-03T05:26:54;16.60;99.90
2997;DHT22;1508;48.744;9.110;2022-09-03T05:29:40;16.70;99.90
2997;DHT22;1508;48.744;9.110;2022-09-03T05:32:28;16.80;99.90
2997;DHT22;1508;48.744;9.110;2022-09-03T05:35:14;16.80;99.90
2997;DHT22;1508;48.744;9.110;2022-09-03T05:38:00;17.00;99.90
2997;DHT22;1508;48.744;9.110;2022-09-03T05:40:46;17.40;99.90
2997;DHT22;1508;48.744;9.110;2022-09-03T05:43:32;17.50;99.90
2997;DHT22;1508;48.744;9.110;2022-09-03T05:46:18;17.60;99.90
2997;DHT22;1508;48.744;9.110;2022-09-03T05:49:05;17.60;99.90
2997;DHT22;1508;48.744;9.110;2022-09-03T05:51:51;17.60;99.90
2997;DHT22;1508;48.744;9.110;2022-09-03T05:54:37;17.50;99.90
2997;DHT22;1508;48.744;9.110;2022-09-03T05:57:23;17.60;99.90
2997;DHT22;1508;48.744;9.110;2022-09-03T06:00:09;17.70;99.90
2997;DHT22;1508;48.744;9.110;2022-09-03T06:02:55;17.80;99.90
2997;DHT22;1508;48.744;9.110;2022-09-03T06:05:49;17.80;99.90
2997;DHT22;1508;48.744;9.110;2022-09-03T06:08:35;17.90;99.90
2997;DHT22;1508;48.744;9.110;2022-09-03T06:11:22;17.90;99.90
2997;DHT22;1508;48.744;9.110;2022-09-03T06:14:10;17.90;99.90
2997;DHT22;1508;48.744;9.110;2022-09-03T06:16:56;17.90;99.90
2997;DHT22;1508;48.744;9.110;2022-09-03T06:19:42;17.90;99.90
2997;DHT22;1508;48.744;9.110;2022-09-03T06:22:28;17.90;99.90
2997;DHT22;1508;48.744;9.110;2022-09-03T06:25:13;18.00;99.90
2997;DHT22;1508;48.744;9.110;2022-09-03T06:27:59;18.10;99.90
2997;DHT22;1508;48.744;9.110;2022-09-03T06:30:45;18.30;99.90
2997;DHT22;1508;48.744;9.110;2022-09-03T06:33:33;18.40;99.90
2997;DHT22;1508;48.744;9.110;2022-09-03T06:36:20;18.50;99.90
2997;DHT22;1508;48.744;9.110;2022-09-03T06:39:06;18.70;99.90
2997;DHT22;1508;48.744;9.110;2022-09-03T06:41:52;18.70;99.90
2997;DHT22;1508;48.744;9.110;2022-09-03T06:44:38;18.80;99.90
2997;DHT22;1508;48.744;9.110;2022-09-03T06:47:24;18.70;99.90
2997;DHT22;1508;48.744;9.110;2022-09-03T06:50:10;18.80;99.90
2997;DHT22;1508;48.744;9.110;2022-09-03T06:52:56;18.90;99.90
2997;DHT22;1508;48.744;9.110;2022-09-03T06:55:41;19.00;99.90
2997;DHT22;1508;48.744;9.110;2022-09-03T06:58:29;19.10;99.90
2997;DHT22;1508;48.744;9.110;2022-09-03T07:01:20;19.10;99.90
2997;DHT22;1508;48.744;9.110;2022-09-03T07:04:07;19.00;99.90
2997;DHT22;1508;48.744;9.110;2022-09-03T07:06:53;18.90;99.90
2997;DHT22;1508;48.744;9.110;2022-09-03T07:09:39;19.00;99.90
2997;DHT22;1508;48.744;9.110;2022-09-03T07:12:25;19.00;99.90
2997;DHT22;1508;48.744;9.110;2022-09-03T07:15:10;19.00;99.90
2997;DHT22;1508;48.744;9.110;2022-09-03T07:17:56;19.10;99.90
2997;DHT22;1508;48.744;9.110;2022-09-03T07:20:42;19.30;99.90
2997;DHT22;1508;48.744;9.110;2022-09-03T07:23:29;19.40;99.90
2997;DHT22;1508;48.744;9.110;2022-09-03T07:26:18;19.60;99.90
2997;DHT22;1508;48.744;9.110;2022-09-03T07:29:05;19.70;99.90
2997;DHT22;1508;48.744;9.110;2022-09-03T07:31:51;19.80;99.90
2997;DHT22;1508;48.744;9.110;2022-09-03T07:34:37;20.00;99.90
2997;DHT22;1508;48.744;9.110;2022-09-03T07:37:23;20.30;99.90
2997;DHT22;1508;48.744;9.110;2022-09-03T07:40:09;20.50;99.90
2997;DHT22;1508;48.744;9.110;2022-09-03T07:42:58;20.70;99.90
2997;DHT22;1508;48.744;9.110;2022-09-03T07:45:49;21.00;99.90
2997;DHT22;1508;48.744;9.110;2022-09-03T07:48:35;21.10;99.90
2997;DHT22;1508;48.744;9.110;2022-09-03T07:51:26;21.10;99.90
2997;DHT22;1508;48.744;9.110;2022-09-03T07:54:12;21.10;99.90
2997;DHT22;1508;48.744;9.110;2022-09-03T07:56:58;21.20;99.90
2997;DHT22;1508;48.744;9.110;2022-09-03T07:59:44;21.10;99.90
2997;DHT22;1508;48.744;9.110;2022-09-03T08:02:30;21.10;99.90
2997;DHT22;1508;48.744;9.110;2022-09-03T08:05:15;21.30;99.90
2997;DHT22;1508;48.744;9.110;2022-09-03T08:08:03;21.50;99.90
2997;DHT22;1508;48.744;9.110;2022-09-03T08:10:49;21.70;99.90
2997;DHT22;1508;48.744;9.110;2022-09-03T08:13:41;21.90;99.90
2997;DHT22;1508;48.744;9.110;2022-09-03T08:16:30;22.10;99.90
2997;DHT22;1508;48.744;9.110;2022-09-03T08:19:17;22.40;99.90
2997;DHT22;1508;48.744;9.110;2022-09-03T08:22:03;22.70;99.90
2997;DHT22;1508;48.744;9.110;2022-09-03T08:24:48;22.90;99.90
2997;DHT22;1508;48.744;9.110;2022-09-03T08:27:34;23.20;99.90
2997;DHT22;1508;48.744;9.110;2022-09-03T08:30:20;23.80;99.90
2997;DHT22;1508;48.744;9.110;2022-09-03T08:33:06;24.00;99.90
2997;DHT22;1508;48.744;9.110;2022-09-03T08:35:52;24.00;99.90
2997;DHT22;1508;48.744;9.110;2022-09-03T08:38:39;24.10;99.90
2997;DHT22;1508;48.744;9.110;2022-09-03T08:44:43;24.30;99.90
2997;DHT22;1508;48.744;9.110;2022-09-03T08:47:41;24.20;99.90
2997;DHT22;1508;48.744;9.110;2022-09-03T08:50:31;24.00;99.90
2997;DHT22;1508;48.744;9.110;2022-09-03T08:53:43;23.60;99.90
2997;DHT22;1508;48.744;9.110;2022-09-03T08:56:31;23.00;99.90
2997;DHT22;1508;48.744;9.110;2022-09-03T08:59:20;22.50;99.90
2997;DHT22;1508;48.744;9.110;2022-09-03T09:14:03;22.00;99.90
2997;DHT22;1508;48.744;9.110;2022-09-03T09:20:17;22.40;99.90
2997;DHT22;1508;48.744;9.110;2022-09-03T09:23:10;22.20;99.90
2997;DHT22;1508;48.744;9.110;2022-09-03T09:26:00;22.20;99.90
2997;DHT22;1508;48.744;9.110;2022-09-03T09:29:15;22.40;99.90
2997;DHT22;1508;48.744;9.110;2022-09-03T09:32:01;22.70;99.90
2997;DHT22;1508;48.744;9.110;2022-09-03T09:34:47;22.70;99.90
2997;DHT22;1508;48.744;9.110;2022-09-03T09:37:33;22.90;99.90
2997;DHT22;1508;48.744;9.110;2022-09-03T09:40:45;23.50;99.90
2997;DHT22;1508;48.744;9.110;2022-09-03T09:43:31;23.30;99.90
2997;DHT22;1508;48.744;9.110;2022-09-03T09:46:24;23.80;99.90
2997;DHT22;1508;48.744;9.110;2022-09-03T09:49:32;23.90;99.90
2997;DHT22;1508;48.744;9.110;2022-09-03T09:52:18;23.50;99.90
2997;DHT22;1508;48.744;9.110;2022-09-03T09:55:16;23.20;99.90
2997;DHT22;1508;48.744;9.110;2022-09-03T09:58:08;22.90;99.90
2997;DHT22;1508;48.744;9.110;2022-09-03T10:01:03;23.10;99.90
2997;DHT22;1508;48.744;9.110;2022-09-03T10:03:54;23.20;99.90
2997;DHT22;1508;48.744;9.110;2022-09-03T10:06:42;23.10;99.90
2997;DHT22;1508;48.744;9.110;2022-09-03T10:09:29;22.50;99.90
2997;DHT22;1508;48.744;9.110;2022-09-03T10:12:23;22.30;99.90
2997;DHT22;1508;48.744;9.110;2022-09-03T10:15:17;22.50;99.90
2997;DHT22;1508;48.744;9.110;2022-09-03T10:21:01;22.30;99.90
2997;DHT22;1508;48.744;9.110;2022-09-03T10:23:57;22.40;99.90
2997;DHT22;1508;48.744;9.110;2022-09-03T10:26:44;22.50;99.90
2997;DHT22;1508;48.744;9.110;2022-09-03T10:29:31;22.60;99.90
2997;DHT22;1508;48.744;9.110;2022-09-03T10:38:33;22.90;99.90
2997;DHT22;1508;48.744;9.110;2022-09-03T10:41:26;23.10;99.90
2997;DHT22;1508;48.744;9.110;2022-09-03T10:50:29;23.90;99.90
2997;DHT22;1508;48.744;9.110;2022-09-03T10:56:12;24.00;99.90
2997;DHT22;1508;48.744;9.110;2022-09-03T11:05:02;23.80;99.90
2997;DHT22;1508;48.744;9.110;2022-09-03T11:08:06;23.90;99.90
2997;DHT22;1508;48.744;9.110;2022-09-03T11:10:59;24.10;99.90
2997;DHT22;1508;48.744;9.110;2022-09-03T11:13:58;24.30;99.90
2997;DHT22;1508;48.744;9.110;2022-09-03T11:16:58;24.50;99.90
2997;DHT22;1508;48.744;9.110;2022-09-03T11:19:49;24.30;99.90
2997;DHT22;1508;48.744;9.110;2022-09-03T11:22:36;23.90;99.90
2997;DHT22;1508;48.744;9.110;2022-09-03T11:25:26;24.00;99.90
2997;DHT22;1508;48.744;9.110;2022-09-03T11:34:52;24.30;99.90
2997;DHT22;1508;48.744;9.110;2022-09-03T11:37:49;24.30;99.90
2997;DHT22;1508;48.744;9.110;2022-09-03T11:40:39;24.50;99.90
2997;DHT22;1508;48.744;9.110;2022-09-03T11:43:34;24.50;99.90
2997;DHT22;1508;48.744;9.110;2022-09-03T11:49:11;24.40;99.90
2997;DHT22;1508;48.744;9.110;2022-09-03T11:52:03;24.30;99.90
2997;DHT22;1508;48.744;9.110;2022-09-03T11:54:49;24.10;99.90
2997;DHT22;1508;48.744;9.110;2022-09-03T11:57:40;24.00;99.90
2997;DHT22;1508;48.744;9.110;2022-09-03T12:00:26;23.80;99.90
2997;DHT22;1508;48.744;9.110;2022-09-03T12:03:14;23.50;99.90
2997;DHT22;1508;48.744;9.110;2022-09-03T12:12:42;22.80;99.90
2997;DHT22;1508;48.744;9.110;2022-09-03T12:15:51;22.60;99.90
2997;DHT22;1508;48.744;9.110;2022-09-03T12:18:40;22.40;99.90
2997;DHT22;1508;48.744;9.110;2022-09-03T12:21:26;22.10;99.90
2997;DHT22;1508;48.744;9.110;2022-09-03T12:24:12;21.70;99.90
2997;DHT22;1508;48.744;9.110;2022-09-03T12:26:58;21.50;99.90
2997;DHT22;1508;48.744;9.110;2022-09-03T12:32:40;20.20;99.90
2997;DHT22;1508;48.744;9.110;2022-09-03T12:35:27;19.80;99.90
2997;DHT22;1508;48.744;9.110;2022-09-03T12:38:13;19.70;99.90
2997;DHT22;1508;48.744;9.110;2022-09-03T12:41:19;19.30;99.90
2997;DHT22;1508;48.744;9.110;2022-09-03T12:44:05;18.80;99.90
2997;DHT22;1508;48.744;9.110;2022-09-03T12:47:12;18.30;99.90
2997;DHT22;1508;48.744;9.110;2022-09-03T12:50:07;18.00;99.90
2997;DHT22;1508;48.744;9.110;2022-09-03T12:52:59;17.70;99.90
2997;DHT22;1508;48.744;9.110;2022-09-03T12:55:50;17.50;99.90
2997;DHT22;1508;48.744;9.110;2022-09-03T12:58:57;17.30;99.90
2997;DHT22;1508;48.744;9.110;2022-09-03T13:01:47;17.30;99.90
2997;DHT22;1508;48.744;9.110;2022-09-03T13:04:35;17.40;99.90
2997;DHT22;1508;48.744;9.110;2022-09-03T13:07:39;17.30;99.90
2997;DHT22;1508;48.744;9.110;2022-09-03T13:10:35;17.30;99.90
2997;DHT22;1508;48.744;9.110;2022-09-03T13:13:54;17.40;99.90
2997;DHT22;1508;48.744;9.110;2022-09-03T13:25:37;18.60;99.90
2997;DHT22;1508;48.744;9.110;2022-09-03T13:31:52;19.50;99.90
2997;DHT22;1508;48.744;9.110;2022-09-03T13:34:44;19.80;99.90
2997;DHT22;1508;48.744;9.110;2022-09-03T13:37:39;20.20;99.90
2997;DHT22;1508;48.744;9.110;2022-09-03T13:40:53;20.70;99.90
2997;DHT22;1508;48.744;9.110;2022-09-03T13:44:10;20.80;99.90
2997;DHT22;1508;48.744;9.110;2022-09-03T13:47:07;20.80;99.90
2997;DHT22;1508;48.744;9.110;2022-09-03T13:53:07;21.20;99.90
2997;DHT22;1508;48.744;9.110;2022-09-03T13:55:56;21.10;99.90
2997;DHT22;1508;48.744;9.110;2022-09-03T14:02:09;21.20;99.90
2997;DHT22;1508;48.744;9.110;2022-09-03T14:05:00;21.50;99.90
2997;DHT22;1508;48.744;9.110;2022-09-03T14:17:14;21.70;99.90
2997;DHT22;1508;48.744;9.110;2022-09-03T14:20:30;21.70;99.90
2997;DHT22;1508;48.744;9.110;2022-09-03T14:23:34;21.50;99.90
2997;DHT22;1508;48.744;9.110;2022-09-03T14:26:28;21.20;99.90
2997;DHT22;1508;48.744;9.110;2022-09-03T14:29:16;21.20;99.90
2997;DHT22;1508;48.744;9.110;2022-09-03T14:35:19;21.30;99.90
2997;DHT22;1508;48.744;9.110;2022-09-03T14:45:14;21.50;99.90
2997;DHT22;1508;48.744;9.110;2022-09-03T14:48:18;21.40;99.90
2997;DHT22;1508;48.744;9.110;2022-09-03T14:57:56;21.80;99.90
2997;DHT22;1508;48.744;9.110;2022-09-03T15:00:58;21.80;99.90
2997;DHT22;1508;48.744;9.110;2022-09-03T15:13:41;22.40;99.90
2997;DHT22;1508;48.744;9.110;2022-09-03T15:19:50;22.60;99.90
2997;DHT22;1508;48.744;9.110;2022-09-03T15:25:47;23.00;99.90
2997;DHT22;1508;48.744;9.110;2022-09-03T15:38:19;23.20;99.90
2997;DHT22;1508;48.744;9.110;2022-09-03T15:44:20;23.10;99.90
2997;DHT22;1508;48.744;9.110;2022-09-03T15:47:08;23.00;99.90
2997;DHT22;1508;48.744;9.110;2022-09-03T15:53:30;22.60;99.90
2997;DHT22;1508;48.744;9.110;2022-09-03T15:56:36;22.50;99.90
2997;DHT22;1508;48.744;9.110;2022-09-03T15:59:41;22.40;99.90
2997;DHT22;1508;48.744;9.110;2022-09-03T16:02:37;22.30;99.90
2997;DHT22;1508;48.744;9.110;2022-09-03T16:08:40;21.80;99.90
2997;DHT22;1508;48.744;9.110;2022-09-03T16:15:06;21.70;99.90
2997;DHT22;1508;48.744;9.110;2022-09-03T16:18:35;21.60;99.90
2997;DHT22;1508;48.744;9.110;2022-09-03T16:21:57;21.50;99.90
2997;DHT22;1508;48.744;9.110;2022-09-03T16:27:52;21.50;99.90
2997;DHT22;1508;48.744;9.110;2022-09-03T16:33:50;21.60;99.90
2997;DHT22;1508;48.744;9.110;2022-09-03T16:36:55;21.70;99.90
2997;DHT22;1508;48.744;9.110;2022-09-03T16:46:11;21.60;99.90
2997;DHT22;1508;48.744;9.110;2022-09-03T16:52:26;21.70;99.90
2997;DHT22;1508;48.744;9.110;2022-09-03T16:55:20;21.80;99.90
2997;DHT22;1508;48.744;9.110;2022-09-03T17:07:40;22.00;99.90
2997;DHT22;1508;48.744;9.110;2022-09-03T17:19:38;21.80;99.90
2997;DHT22;1508;48.744;9.110;2022-09-03T17:25:58;21.50;99.90
2997;DHT22;1508;48.744;9.110;2022-09-03T17:35:56;21.10;99.90
2997;DHT22;1508;48.744;9.110;2022-09-03T17:41:51;20.90;99.90
2997;DHT22;1508;48.744;9.110;2022-09-03T17:44:49;20.70;99.90
2997;DHT22;1508;48.744;9.110;2022-09-03T17:54:43;20.30;99.90
2997;DHT22;1508;48.744;9.110;2022-09-03T17:57:49;20.20;99.90
2997;DHT22;1508;48.744;9.110;2022-09-03T18:04:26;19.90;99.90
2997;DHT22;1508;48.744;9.110;2022-09-03T18:10:18;19.60;99.90
2997;DHT22;1508;48.744;9.110;2022-09-03T18:13:39;19.50;99.90
2997;DHT22;1508;48.744;9.110;2022-09-03T18:16:36;19.40;99.90
2997;DHT22;1508;48.744;9.110;2022-09-03T18:19:42;19.30;99.90
2997;DHT22;1508;48.744;9.110;2022-09-03T18:22:35;19.20;99.90
2997;DHT22;1508;48.744;9.110;2022-09-03T18:25:25;19.10;99.90
2997;DHT22;1508;48.744;9.110;2022-09-03T18:28:15;19.00;99.90
2997;DHT22;1508;48.744;9.110;2022-09-03T18:31:02;19.00;99.90
2997;DHT22;1508;48.744;9.110;2022-09-03T18:33:48;18.90;99.90
2997;DHT22;1508;48.744;9.110;2022-09-03T18:36:34;18.80;99.90
2997;DHT22;1508;48.744;9.110;2022-09-03T18:39:25;18.70;99.90
2997;DHT22;1508;48.744;9.110;2022-09-03T18:42:18;18.60;99.90
2997;DHT22;1508;48.744;9.110;2022-09-03T18:45:11;18.60;99.90
2997;DHT22;1508;48.744;9.110;2022-09-03T18:54:59;18.40;99.90
2997;DHT22;1508;48.744;9.110;2022-09-03T19:07:11;18.10;99.90
2997;DHT22;1508;48.744;9.110;2022-09-03T19:10:12;18.10;99.90
2997;DHT22;1508;48.744;9.110;2022-09-03T19:22:07;18.00;99.90
2997;DHT22;1508;48.744;9.110;2022-09-03T19:25:04;18.00;99.90
2997;DHT22;1508;48.744;9.110;2022-09-03T19:28:05;18.00;99.90
2997;DHT22;1508;48.744;9.110;2022-09-03T19:37:52;17.90;99.90
2997;DHT22;1508;48.744;9.110;2022-09-03T19:43:33;17.80;99.90
2997;DHT22;1508;48.744;9.110;2022-09-03T19:46:46;17.80;99.90
2997;DHT22;1508;48.744;9.110;2022-09-03T19:49:41;17.70;99.90
2997;DHT22;1508;48.744;9.110;2022-09-03T19:55:29;17.60;99.90
2997;DHT22;1508;48.744;9.110;2022-09-03T19:58:17;17.60;99.90
2997;DHT22;1508;48.744;9.110;2022-09-03T20:01:05;17.70;99.90
2997;DHT22;1508;48.744;9.110;2022-09-03T20:03:54;17.70;99.90
2997;DHT22;1508;48.744;9.110;2022-09-03T20:06:41;17.70;99.90
2997;DHT22;1508;48.744;9.110;2022-09-03T20:09:34;17.60;99.90
2997;DHT22;1508;48.744;9.110;2022-09-03T20:12:23;17.60;99.90
2997;DHT22;1508;48.744;9.110;2022-09-03T20:15:10;17.60;99.90
2997;DHT22;1508;48.744;9.110;2022-09-03T20:18:05;17.60;99.90
2997;DHT22;1508;48.744;9.110;2022-09-03T20:24:07;17.60;99.90
2997;DHT22;1508;48.744;9.110;2022-09-03T20:27:10;17.60;99.90
2997;DHT22;1508;48.744;9.110;2022-09-03T20:30:12;17.50;99.90
2997;DHT22;1508;48.744;9.110;2022-09-03T20:33:28;17.50;99.90
2997;DHT22;1508;48.744;9.110;2022-09-03T20:36:43;17.40;99.90
2997;DHT22;1508;48.744;9.110;2022-09-03T20:39:52;17.40;99.90
2997;DHT22;1508;48.744;9.110;2022-09-03T20:43:02;17.30;99.90
2997;DHT22;1508;48.744;9.110;2022-09-03T20:46:04;17.30;99.90
2997;DHT22;1508;48.744;9.110;2022-09-03T20:49:23;17.20;99.90
2997;DHT22;1508;48.744;9.110;2022-09-03T20:52:16;17.20;99.90
2997;DHT22;1508;48.744;9.110;2022-09-03T20:58:34;17.10;99.90
2997;DHT22;1508;48.744;9.110;2022-09-03T21:01:54;17.20;99.90
2997;DHT22;1508;48.744;9.110;2022-09-03T21:08:18;17.20;99.90
2997;DHT22;1508;48.744;9.110;2022-09-03T21:11:22;17.30;99.90
2997;DHT22;1508;48.744;9.110;2022-09-03T21:14:40;17.40;99.90
2997;DHT22;1508;48.744;9.110;2022-09-03T21:17:54;17.50;99.90
2997;DHT22;1508;48.744;9.110;2022-09-03T21:23:32;17.70;99.90
2997;DHT22;1508;48.744;9.110;2022-09-03T21:26:25;17.80;99.90
2997;DHT22;1508;48.744;9.110;2022-09-03T21:29:16;17.80;99.90
2997;DHT22;1508;48.744;9.110;2022-09-03T21:32:20;17.80;99.90
2997;DHT22;1508;48.744;9.110;2022-09-03T21:35:22;17.70;99.90
2997;DHT22;1508;48.744;9.110;2022-09-03T21:38:17;17.80;99.90
2997;DHT22;1508;48.744;9.110;2022-09-03T21:47:17;17.90;99.90
2997;DHT22;1508;48.744;9.110;2022-09-03T21:50:25;17.90;99.90
2997;DHT22;1508;48.744;9.110;2022-09-03T21:53:35;18.00;99.90
2997;DHT22;1508;48.744;9.110;2022-09-03T22:02:28;17.60;99.90
2997;DHT22;1508;48.744;9.110;2022-09-03T22:05:15;17.70;99.90
2997;DHT22;1508;48.744;9.110;2022-09-03T22:11:05;17.80;99.90
2997;DHT22;1508;48.744;9.110;2022-09-03T22:14:14;17.70;99.90
2997;DHT22;1508;48.744;9.110;2022-09-03T22:17:10;17.70;99.90
2997;DHT22;1508;48.744;9.110;2022-09-03T22:19:57;17.70;99.90
2997;DHT22;1508;48.744;9.110;2022-09-03T22:22:53;17.70;99.90
2997;DHT22;1508;48.744;9.110;2022-09-03T22:29:17;17.80;99.90
2997;DHT22;1508;48.744;9.110;2022-09-03T22:50:56;17.70;99.90
2997;DHT22;1508;48.744;9.110;2022-09-03T22:56:35;17.50;99.90
2997;DHT22;1508;48.744;9.110;2022-09-03T22:59:36;17.50;99.90
2997;DHT22;1508;48.744;9.110;2022-09-03T23:02:26;17.50;99.90
2997;DHT22;1508;48.744;9.110;2022-09-03T23:05:51;17.40;99.90
2997;DHT22;1508;48.744;9.110;2022-09-03T23:08:45;17.40;99.90
2997;DHT22;1508;48.744;9.110;2022-09-03T23:14:27;17.20;99.90
2997;DHT22;1508;48.744;9.110;2022-09-03T23:17:23;17.10;99.90
2997;DHT22;1508;48.744;9.110;2022-09-03T23:20:24;17.10;99.90
2997;DHT22;1508;48.744;9.110;2022-09-03T23:23:39;17.10;99.90
2997;DHT22;1508;48.744;9.110;2022-09-03T23:26:36;17.00;99.90
2997;DHT22;1508;48.744;9.110;2022-09-03T23:29:50;17.00;99.90
2997;DHT22;1508;48.744;9.110;2022-09-03T23:32:36;17.00;99.90
2997;DHT22;1508;48.744;9.110;2022-09-03T23:35:29;16.90;99.90
2997;DHT22;1508;48.744;9.110;2022-09-03T23:39:21;16.80;99.90
2997;DHT22;1508;48.744;9.110;2022-09-03T23:42:14;16.70;99.90
2997;DHT22;1508;48.744;9.110;2022-09-03T23:57:28;16.40;99.90
